Time;durP1;ratioP1;P1;durP2;ratioP2;P2;SDS_P1;SDS_P2;PMS_P1;PMS_P2;Temp;Humidity;BMP_temperature;BMP_pressure;BME280_temperature;BME280_humidity;BME280_pressure;Samples;Min_cycle;Max_cycle;Signal;HPM_P1;HPM_P2
2024/03/09 00:00:50;;;;;;;0.20;0.20;;;;;;;;;;5095523;28;20043;-84
2024/03/09 00:03:17;;;;;;;0.20;0.20;;;;;;;;;;5078617;28;20055;-84
2024/03/09 00:05:43;;;;;;;0.10;0.10;;;;;;;;;;5095617;28;20054;-84
2024/03/09 00:08:10;;;;;;;0.50;0.50;;;;;;;;;;5112778;28;20043;-84
2024/03/09 00:10:36;;;;;;;0.40;0.30;;;;;;;;;;5078700;28;20046;-85
2024/03/09 00:13:04;;;;;;;0.10;0.10;;;;;;;;;;5095590;28;20506;-84
2024/03/09 00:15:31;;;;;;;1.23;0.50;;;;;;;;;;5095817;28;20490;-85
2024/03/09 00:17:58;;;;;;;0.10;0.10;;;;;;;;;;5078555;28;20591;-85
2024/03/09 00:20:36;;;;;;;0.10;0.10;;;;;;;;;;5078376;28;20042;-85
2024/03/09 00:23:02;;;;;;;0.10;0.10;;;;;;;;;;5079734;28;20193;-85
2024/03/09 00:25:28;;;;;;;0.30;0.30;;;;;;;;;;5112340;28;20040;-85
2024/03/09 00:27:55;;;;;;;0.45;0.45;;;;;;;;;;5095319;28;20051;-85
2024/03/09 00:30:21;;;;;;;0.20;0.20;;;;;;;;;;5078126;28;20051;-84
2024/03/09 00:32:51;;;;;;;0.10;0.10;;;;;;;;;;5112143;28;20052;-85
2024/03/09 00:35:17;;;;;;;0.10;0.10;;;;;;;;;;5111933;28;20035;-85
2024/03/09 00:37:43;;;;;;;0.43;0.43;;;;;;;;;;5095038;28;20040;-84
2024/03/09 00:40:09;;;;;;;0.20;0.20;;;;;;;;;;5078404;28;20478;-86
2024/03/09 00:42:38;;;;;;;0.40;0.40;;;;;;;;;;5093966;28;20266;-85
2024/03/09 00:45:05;;;;;;;0.43;0.43;;;;;;;;;;5077885;28;20047;-84
2024/03/09 00:47:32;;;;;;;0.20;0.20;;;;;;;;;;5095148;28;20076;-85
2024/03/09 00:49:58;;;;;;;0.50;0.50;;;;;;;;;;5078320;28;20108;-84
2024/03/09 00:52:25;;;;;;;0.30;0.30;;;;;;;;;;5094841;28;20044;-85
2024/03/09 00:55:00;;;;;;;2.55;0.70;;;;;;;;;;5077982;28;20042;-85
2024/03/09 00:57:26;;;;;;;1.60;0.20;;;;;;;;;;5111908;28;20122;-84
2024/03/09 00:59:52;;;;;;;0.10;0.10;;;;;;;;;;5094809;28;20039;-84
2024/03/09 01:02:18;;;;;;;1.35;0.40;;;;;;;;;;5094510;28;20111;-85
2024/03/09 01:04:50;;;;;;;0.20;0.20;;;;;;;;;;5094772;28;20044;-85
2024/03/09 01:07:23;;;;;;;0.10;0.10;;;;;;;;;;5095699;28;20047;-84
2024/03/09 01:09:49;;;;;;;0.10;0.10;;;;;;;;;;5111567;28;20100;-84
2024/03/09 01:12:17;;;;;;;0.17;0.15;;;;;;;;;;5077584;28;20078;-84
2024/03/09 01:14:47;;;;;;;1.13;0.40;;;;;;;;;;5111485;28;20487;-84
2024/03/09 01:17:16;;;;;;;0.20;0.20;;;;;;;;;;5111481;28;20040;-84
2024/03/09 01:19:45;;;;;;;0.20;0.20;;;;;;;;;;5111685;28;20414;-84
2024/03/09 01:22:12;;;;;;;0.10;0.10;;;;;;;;;;5078118;28;20505;-84
2024/03/09 01:24:39;;;;;;;0.30;0.30;;;;;;;;;;5111478;28;20119;-84
2024/03/09 01:27:06;;;;;;;0.45;0.45;;;;;;;;;;5094342;28;20036;-84
2024/03/09 01:29:32;;;;;;;0.10;0.10;;;;;;;;;;5077524;28;20036;-85
2024/03/09 01:32:03;;;;;;;0.10;0.10;;;;;;;;;;5094660;28;20523;-84
2024/03/09 01:34:29;;;;;;;0.55;0.40;;;;;;;;;;5095016;28;20418;-86
2024/03/09 01:36:55;;;;;;;0.10;0.10;;;;;;;;;;5094300;28;20043;-85
2024/03/09 01:39:23;;;;;;;0.10;0.10;;;;;;;;;;5077388;28;20039;-85
2024/03/09 01:41:50;;;;;;;0.10;0.10;;;;;;;;;;5077596;28;20044;-84
2024/03/09 01:44:16;;;;;;;0.10;0.10;;;;;;;;;;5111032;28;20510;-85
2024/03/09 01:46:42;;;;;;;0.13;0.13;;;;;;;;;;5094426;28;20039;-85
2024/03/09 01:49:08;;;;;;;0.30;0.30;;;;;;;;;;5111101;28;20043;-84
2024/03/09 01:51:35;;;;;;;0.10;0.10;;;;;;;;;;5077595;28;20378;-84
2024/03/09 01:54:01;;;;;;;0.28;0.28;;;;;;;;;;5113117;28;20444;-84
2024/03/09 01:56:27;;;;;;;0.28;0.28;;;;;;;;;;5098092;28;20036;-84
2024/03/09 01:58:54;;;;;;;0.30;0.30;;;;;;;;;;5098234;28;20122;-84
2024/03/09 02:01:23;;;;;;;0.38;0.38;;;;;;;;;;5080968;28;20042;-84
2024/03/09 02:03:53;;;;;;;0.10;0.10;;;;;;;;;;5098632;28;20043;-83
2024/03/09 02:06:21;;;;;;;0.65;0.65;;;;;;;;;;5081280;28;20046;-84
2024/03/09 02:08:47;;;;;;;0.17;0.17;;;;;;;;;;5098132;28;20075;-84
2024/03/09 02:11:13;;;;;;;0.20;0.20;;;;;;;;;;5114912;28;20047;-84
2024/03/09 02:13:41;;;;;;;0.35;0.35;;;;;;;;;;5098022;28;20123;-84
2024/03/09 02:16:07;;;;;;;0.10;0.10;;;;;;;;;;5097927;28;20462;-84
2024/03/09 02:18:33;;;;;;;0.10;0.10;;;;;;;;;;5097861;28;20117;-84
2024/03/09 02:21:00;;;;;;;0.10;0.10;;;;;;;;;;5097424;28;20047;-84
2024/03/09 02:23:30;;;;;;;0.10;0.10;;;;;;;;;;5081026;28;20043;-85
2024/03/09 02:25:57;;;;;;;0.20;0.20;;;;;;;;;;5098093;28;20059;-85
2024/03/09 02:28:27;;;;;;;0.38;0.38;;;;;;;;;;5097796;28;20040;-84
2024/03/09 02:30:54;;;;;;;0.20;0.20;;;;;;;;;;5081190;28;20047;-84
2024/03/09 02:33:20;;;;;;;0.15;0.15;;;;;;;;;;5080509;28;20071;-84
2024/03/09 02:35:47;;;;;;;0.10;0.10;;;;;;;;;;5080950;28;20067;-84
2024/03/09 02:38:13;;;;;;;0.30;0.30;;;;;;;;;;5115850;28;20454;-85
2024/03/09 02:40:39;;;;;;;0.15;0.15;;;;;;;;;;5080486;28;20481;-85
2024/03/09 02:43:07;;;;;;;0.10;0.10;;;;;;;;;;5097348;28;20051;-85
2024/03/09 02:45:33;;;;;;;0.20;0.20;;;;;;;;;;5080647;28;20131;-85
2024/03/09 02:48:00;;;;;;;0.10;0.10;;;;;;;;;;5114081;28;20075;-84
2024/03/09 02:50:28;;;;;;;0.20;0.20;;;;;;;;;;5097150;28;20040;-85
2024/03/09 02:52:55;;;;;;;0.22;0.22;;;;;;;;;;5097474;28;20097;-85
2024/03/09 02:55:21;;;;;;;0.10;0.10;;;;;;;;;;5097294;28;20063;-84
2024/03/09 02:57:47;;;;;;;0.10;0.10;;;;;;;;;;5080250;28;20043;-84
2024/03/09 03:00:13;;;;;;;0.10;0.10;;;;;;;;;;5115129;28;20038;-85
2024/03/09 03:05:25;;;;;;;0.10;0.10;;;;;;;;;;5114292;28;20051;-85
2024/03/09 03:07:54;;;;;;;0.10;0.10;;;;;;;;;;5096830;28;20064;-85
2024/03/09 03:10:20;;;;;;;0.10;0.10;;;;;;;;;;5097066;28;20386;-85
2024/03/09 03:12:47;;;;;;;0.30;0.30;;;;;;;;;;5097016;28;20056;-85
2024/03/09 03:15:13;;;;;;;0.30;0.30;;;;;;;;;;5096686;28;20044;-84
2024/03/09 03:17:39;;;;;;;0.10;0.10;;;;;;;;;;5097017;28;20035;-85
2024/03/09 03:20:09;;;;;;;0.20;0.20;;;;;;;;;;5096450;28;20036;-85
2024/03/09 03:22:37;;;;;;;0.20;0.20;;;;;;;;;;5113466;28;20118;-85
2024/03/09 03:25:04;;;;;;;0.10;0.10;;;;;;;;;;5113484;28;20050;-85
2024/03/09 03:27:30;;;;;;;0.10;0.10;;;;;;;;;;5113527;28;20062;-85
2024/03/09 03:29:56;;;;;;;0.10;0.10;;;;;;;;;;5096582;28;20031;-85
2024/03/09 03:32:22;;;;;;;0.10;0.10;;;;;;;;;;5113316;28;20047;-85
2024/03/09 03:34:49;;;;;;;0.15;0.15;;;;;;;;;;5079556;28;20090;-85
2024/03/09 03:37:17;;;;;;;0.20;0.20;;;;;;;;;;5113172;28;20044;-85
2024/03/09 03:39:44;;;;;;;0.10;0.10;;;;;;;;;;5096373;28;20088;-85
2024/03/09 03:42:12;;;;;;;0.10;0.10;;;;;;;;;;5095965;28;20039;-85
2024/03/09 03:44:39;;;;;;;0.10;0.10;;;;;;;;;;5096595;28;20105;-86
2024/03/09 03:47:06;;;;;;;0.85;0.68;;;;;;;;;;5096501;28;20118;-85
2024/03/09 03:49:32;;;;;;;0.20;0.20;;;;;;;;;;5079129;28;20047;-85
2024/03/09 03:51:58;;;;;;;0.13;0.13;;;;;;;;;;5095851;28;20046;-86
2024/03/09 03:54:25;;;;;;;0.20;0.20;;;;;;;;;;5079035;28;20047;-85
2024/03/09 03:56:53;;;;;;;0.75;0.43;;;;;;;;;;5079258;28;20043;-85
2024/03/09 03:59:19;;;;;;;0.25;0.20;;;;;;;;;;5079370;28;20039;-85
2024/03/09 04:01:45;;;;;;;0.82;0.30;;;;;;;;;;5112461;28;20044;-85
2024/03/09 04:04:12;;;;;;;0.30;0.30;;;;;;;;;;5095970;28;20408;-85
2024/03/09 04:06:44;;;;;;;0.30;0.30;;;;;;;;;;5095630;28;20044;-85
2024/03/09 04:09:13;;;;;;;0.38;0.38;;;;;;;;;;5079870;28;20128;-86
2024/03/09 04:11:40;;;;;;;0.10;0.10;;;;;;;;;;5079056;28;20075;-85
2024/03/09 04:14:06;;;;;;;0.32;0.32;;;;;;;;;;5112504;28;20459;-85
2024/03/09 04:16:33;;;;;;;0.40;0.40;;;;;;;;;;5095434;28;20132;-84
2024/03/09 04:19:02;;;;;;;0.20;0.20;;;;;;;;;;5113677;28;20044;-85
2024/03/09 04:21:28;;;;;;;0.20;0.20;;;;;;;;;;5095688;28;20085;-84
2024/03/09 04:23:54;;;;;;;0.25;0.25;;;;;;;;;;5112250;28;20044;-85
2024/03/09 04:26:21;;;;;;;0.20;0.20;;;;;;;;;;5095523;28;20130;-85
2024/03/09 04:28:47;;;;;;;0.10;0.10;;;;;;;;;;5095137;28;20085;-85
2024/03/09 04:31:13;;;;;;;0.52;0.25;;;;;;;;;;5095114;28;20096;-85
2024/03/09 04:33:40;;;;;;;0.17;0.17;;;;;;;;;;5112180;28;20374;-85
2024/03/09 04:36:07;;;;;;;0.10;0.10;;;;;;;;;;5095366;28;20092;-85
2024/03/09 04:38:33;;;;;;;0.45;0.45;;;;;;;;;;5111892;28;20437;-84
2024/03/09 04:40:59;;;;;;;0.20;0.20;;;;;;;;;;5111881;28;20038;-85
2024/03/09 04:43:32;;;;;;;0.10;0.10;;;;;;;;;;5078221;28;20130;-86
2024/03/09 04:45:58;;;;;;;;;;;;;;;;;;5079491;28;20092;-85
2024/03/09 04:48:24;;;;;;;0.10;0.10;;;;;;;;;;5112061;28;19915;-85
2024/03/09 04:50:50;;;;;;;0.30;0.30;;;;;;;;;;5094861;28;20043;-86
2024/03/09 04:53:16;;;;;;;0.65;0.20;;;;;;;;;;5094740;28;20253;-86
2024/03/09 04:55:50;;;;;;;1.27;1.17;;;;;;;;;;5078451;28;20383;-85
2024/03/09 04:58:17;;;;;;;0.17;0.17;;;;;;;;;;5079140;28;20043;-86
2024/03/09 05:00:44;;;;;;;0.13;0.13;;;;;;;;;;5094868;28;20040;-86
2024/03/09 05:03:13;;;;;;;0.17;0.17;;;;;;;;;;5077672;28;20084;-85
2024/03/09 05:05:40;;;;;;;0.40;0.40;;;;;;;;;;5111549;28;20058;-86
2024/03/09 05:08:06;;;;;;;0.17;0.17;;;;;;;;;;5078091;28;20039;-85
2024/03/09 05:10:32;;;;;;;0.52;0.52;;;;;;;;;;5094563;28;20040;-86
2024/03/09 05:12:58;;;;;;;0.20;0.20;;;;;;;;;;5078130;28;20066;-86
2024/03/09 05:15:24;;;;;;;3.75;0.57;;;;;;;;;;5094762;28;20541;-86
2024/03/09 05:17:54;;;;;;;0.32;0.32;;;;;;;;;;5111327;28;20032;-86
2024/03/09 05:20:22;;;;;;;0.10;0.10;;;;;;;;;;5078182;28;20335;-85
2024/03/09 05:22:52;;;;;;;0.20;0.20;;;;;;;;;;5077726;28;20474;-85
2024/03/09 05:25:18;;;;;;;0.20;0.20;;;;;;;;;;5077538;28;20114;-86
2024/03/09 05:27:44;;;;;;;0.10;0.10;;;;;;;;;;5094373;28;20043;-85
2024/03/09 05:30:14;;;;;;;0.10;0.10;;;;;;;;;;5110817;28;20031;-86
2024/03/09 05:32:42;;;;;;;0.30;0.30;;;;;;;;;;5094101;28;20420;-85
2024/03/09 05:35:11;;;;;;;0.10;0.10;;;;;;;;;;5094538;28;20043;-86
2024/03/09 05:37:39;;;;;;;0.55;0.55;;;;;;;;;;5077874;28;20039;-85
2024/03/09 05:40:08;;;;;;;1.90;0.30;;;;;;;;;;5111176;28;20075;-85
2024/03/09 05:42:36;;;;;;;0.15;0.15;;;;;;;;;;5094524;28;20040;-86
2024/03/09 05:45:03;;;;;;;0.20;0.20;;;;;;;;;;5094082;28;20036;-85
2024/03/09 05:47:29;;;;;;;0.10;0.10;;;;;;;;;;5094393;28;20312;-85
2024/03/09 05:49:55;;;;;;;0.20;0.20;;;;;;;;;;5094238;28;20510;-85
2024/03/09 05:52:21;;;;;;;1.17;1.17;;;;;;;;;;5094114;28;20479;-85
2024/03/09 05:54:48;;;;;;;0.10;0.10;;;;;;;;;;5111322;28;20039;-85
2024/03/09 05:57:15;;;;;;;0.20;0.20;;;;;;;;;;5077410;28;20035;-85
2024/03/09 05:59:42;;;;;;;0.20;0.20;;;;;;;;;;5094383;28;20118;-85
2024/03/09 06:02:09;;;;;;;0.43;0.20;;;;;;;;;;5093919;28;20078;-85
2024/03/09 06:04:35;;;;;;;0.10;0.10;;;;;;;;;;5094051;28;20044;-85
2024/03/09 06:07:01;;;;;;;0.20;0.20;;;;;;;;;;5077309;28;20458;-85
2024/03/09 06:09:27;;;;;;;0.25;0.25;;;;;;;;;;5077425;28;20044;-84
2024/03/09 06:11:53;;;;;;;0.40;0.40;;;;;;;;;;5110824;28;20089;-85
2024/03/09 06:14:22;;;;;;;0.10;0.10;;;;;;;;;;5093760;28;20044;-85
2024/03/09 06:16:48;;;;;;;0.20;0.20;;;;;;;;;;5077399;28;20479;-85
2024/03/09 06:19:14;;;;;;;0.20;0.20;;;;;;;;;;5093949;28;20552;-86
2024/03/09 06:21:40;;;;;;;3.00;0.25;;;;;;;;;;5093824;28;20480;-85
2024/03/09 06:24:06;;;;;;;0.15;0.15;;;;;;;;;;5077581;28;20079;-85
2024/03/09 06:26:33;;;;;;;1.65;0.80;;;;;;;;;;5110828;28;20043;-84
2024/03/09 06:29:00;;;;;;;0.65;0.65;;;;;;;;;;5094217;28;20052;-85
2024/03/09 06:31:26;;;;;;;0.38;0.30;;;;;;;;;;5093878;28;20043;-86
2024/03/09 06:33:52;;;;;;;0.60;0.30;;;;;;;;;;5110629;28;20035;-85
2024/03/09 06:36:18;;;;;;;0.30;0.30;;;;;;;;;;5110731;28;20043;-85
2024/03/09 06:38:44;;;;;;;0.08;0.08;;;;;;;;;;5110763;28;20115;-85
2024/03/09 06:41:10;;;;;;;0.40;0.20;;;;;;;;;;5111986;28;20120;-85
2024/03/09 06:43:37;;;;;;;0.10;0.10;;;;;;;;;;5097298;28;20494;-85
2024/03/09 06:46:04;;;;;;;0.38;0.38;;;;;;;;;;5097284;28;20044;-85
2024/03/09 06:48:30;;;;;;;0.20;0.20;;;;;;;;;;5097783;28;20039;-85
2024/03/09 06:50:58;;;;;;;0.20;0.20;;;;;;;;;;5097196;28;20067;-85
2024/03/09 06:53:25;;;;;;;0.25;0.25;;;;;;;;;;5080474;28;20126;-85
2024/03/09 06:55:51;;;;;;;2.28;0.52;;;;;;;;;;5080245;28;20035;-85
2024/03/09 06:58:17;;;;;;;0.10;0.10;;;;;;;;;;5114022;28;20216;-82
2024/03/09 07:00:43;;;;;;;1.65;1.55;;;;;;;;;;5114170;28;20084;-84
2024/03/09 07:03:10;;;;;;;3.75;0.30;;;;;;;;;;5096967;28;20533;-84
2024/03/09 07:05:36;;;;;;;0.10;0.10;;;;;;;;;;5113748;28;20127;-84
2024/03/09 07:08:03;;;;;;;0.20;0.20;;;;;;;;;;5097043;28;20077;-84
2024/03/09 07:10:29;;;;;;;0.43;0.40;;;;;;;;;;5096823;28;20058;-84
2024/03/09 07:12:55;;;;;;;0.80;0.80;;;;;;;;;;5096697;28;20085;-84
2024/03/09 07:15:26;;;;;;;1.60;0.25;;;;;;;;;;5079948;28;20047;-84
2024/03/09 07:17:55;;;;;;;0.17;0.17;;;;;;;;;;5080546;28;20040;-84
2024/03/09 07:20:27;;;;;;;0.20;0.20;;;;;;;;;;5097514;28;20043;-84
2024/03/09 07:22:53;;;;;;;0.30;0.30;;;;;;;;;;5097319;28;20051;-83
2024/03/09 07:25:26;;;;;;;1.05;0.85;;;;;;;;;;5096804;28;20048;-83
2024/03/09 07:27:55;;;;;;;0.17;0.17;;;;;;;;;;5096904;28;20039;-83
2024/03/09 07:30:21;;;;;;;0.20;0.20;;;;;;;;;;5096307;28;20050;-81
2024/03/09 07:32:50;;;;;;;0.20;0.20;;;;;;;;;;5096375;28;20043;-82
2024/03/09 07:35:19;;;;;;;0.25;0.25;;;;;;;;;;5096667;28;20046;-82
2024/03/09 07:37:46;;;;;;;0.32;0.32;;;;;;;;;;5079387;28;20031;-83
2024/03/09 07:40:16;;;;;;;0.73;0.63;;;;;;;;;;5113075;28;20122;-82
2024/03/09 07:42:42;;;;;;;0.63;0.63;;;;;;;;;;5114338;28;20503;-82
2024/03/09 07:45:13;;;;;;;1.23;1.05;;;;;;;;;;5096260;28;20042;-82
2024/03/09 07:47:46;;;;;;;0.40;0.40;;;;;;;;;;5080060;28;20475;-83
2024/03/09 07:50:16;;;;;;;0.52;0.40;;;;;;;;;;5095869;28;20039;-83
2024/03/09 07:52:43;;;;;;;0.50;0.50;;;;;;;;;;5095334;28;20058;-83
2024/03/09 07:55:09;;;;;;;0.43;0.40;;;;;;;;;;5096044;28;20046;-82
2024/03/09 07:57:37;;;;;;;2.35;2.10;;;;;;;;;;5095902;28;20032;-83
2024/03/09 08:00:09;;;;;;;0.28;0.28;;;;;;;;;;5096151;28;20040;-83
2024/03/09 08:02:37;;;;;;;0.60;0.60;;;;;;;;;;5112830;28;20056;-83
2024/03/09 08:05:04;;;;;;;0.95;0.95;;;;;;;;;;5114089;28;20555;-83
2024/03/09 08:07:31;;;;;;;0.77;0.77;;;;;;;;;;5095841;28;20031;-82
2024/03/09 08:09:57;;;;;;;0.70;0.70;;;;;;;;;;5078783;28;20048;-83
2024/03/09 08:12:23;;;;;;;1.85;0.85;;;;;;;;;;5112629;28;20040;-83
2024/03/09 08:14:49;;;;;;;0.55;0.50;;;;;;;;;;5112481;28;20047;-82
2024/03/09 08:17:16;;;;;;;1.45;1.35;;;;;;;;;;5113548;28;20054;-85
2024/03/09 08:19:42;;;;;;;0.93;0.75;;;;;;;;;;5078923;28;20433;-84
2024/03/09 08:22:08;;;;;;;0.28;0.28;;;;;;;;;;5112341;28;20044;-84
2024/03/09 08:24:35;;;;;;;0.50;0.50;;;;;;;;;;5095548;28;20043;-84
2024/03/09 08:27:02;;;;;;;0.55;0.47;;;;;;;;;;5078846;28;20039;-86
2024/03/09 08:29:31;;;;;;;1.67;0.57;;;;;;;;;;5095485;28;20081;-85
2024/03/09 08:31:58;;;;;;;0.68;0.68;;;;;;;;;;5095233;28;20036;-84
2024/03/09 08:34:24;;;;;;;1.40;0.40;;;;;;;;;;5112098;28;20127;-85
2024/03/09 08:36:51;;;;;;;0.88;0.40;;;;;;;;;;5112159;28;20467;-85
2024/03/09 08:39:18;;;;;;;0.40;0.40;;;;;;;;;;5078227;28;20468;-86
2024/03/09 08:41:46;;;;;;;1.35;0.65;;;;;;;;;;5095275;28;20046;-84
2024/03/09 08:44:13;;;;;;;1.10;0.82;;;;;;;;;;5096509;28;20435;-90
2024/03/09 08:46:39;;;;;;;0.40;0.30;;;;;;;;;;5079614;28;20132;-85
2024/03/09 08:49:05;;;;;;;1.15;1.15;;;;;;;;;;5078529;28;20406;-83
2024/03/09 08:51:33;;;;;;;0.35;0.35;;;;;;;;;;5077905;28;20039;-84
2024/03/09 08:54:00;;;;;;;0.73;0.70;;;;;;;;;;5095235;28;20032;-82
2024/03/09 08:56:27;;;;;;;0.52;0.50;;;;;;;;;;5111675;28;20040;-82
2024/03/09 08:58:53;;;;;;;1.00;0.95;;;;;;;;;;5078268;28;20036;-82
2024/03/09 09:01:19;;;;;;;0.20;0.20;;;;;;;;;;5106246;28;20038;-81
2024/03/09 09:03:45;;;;;;;1.45;0.50;;;;;;;;;;5110099;28;20157;-82
2024/03/09 09:06:11;;;;;;;0.52;0.50;;;;;;;;;;5092649;28;20055;-82
2024/03/09 09:08:37;;;;;;;0.50;0.50;;;;;;;;;;5108458;28;20036;-82
2024/03/09 09:11:04;;;;;;;0.55;0.55;;;;;;;;;;5094546;28;20039;-82
2024/03/09 09:13:31;;;;;;;0.75;0.75;;;;;;;;;;5094490;28;20096;-81
2024/03/09 09:15:58;;;;;;;0.80;0.57;;;;;;;;;;5093439;28;20592;-82
2024/03/09 09:18:24;;;;;;;0.43;0.43;;;;;;;;;;5073408;28;20479;-82
2024/03/09 09:20:52;;;;;;;0.85;0.50;;;;;;;;;;5103107;28;20043;-81
2024/03/09 09:23:20;;;;;;;0.38;0.38;;;;;;;;;;5110489;28;20051;-82
2024/03/09 09:25:46;;;;;;;0.82;0.80;;;;;;;;;;5091144;28;20248;-81
2024/03/09 09:28:15;;;;;;;2.30;0.68;;;;;;;;;;5109475;28;20141;-81
2024/03/09 09:30:44;;;;;;;1.05;1.05;;;;;;;;;;5109809;28;20042;-81
2024/03/09 09:33:13;;;;;;;0.80;0.73;;;;;;;;;;5094316;28;20487;-81
2024/03/09 09:35:39;;;;;;;0.70;0.70;;;;;;;;;;5094392;28;20040;-82
2024/03/09 09:38:06;;;;;;;0.73;0.43;;;;;;;;;;5077654;28;20043;-82
2024/03/09 09:40:32;;;;;;;0.40;0.40;;;;;;;;;;5094212;28;20040;-82
2024/03/09 09:43:02;;;;;;;0.28;0.28;;;;;;;;;;5111165;28;20096;-81
2024/03/09 09:45:28;;;;;;;0.25;0.25;;;;;;;;;;5109805;28;20043;-82
2024/03/09 09:47:54;;;;;;;0.30;0.20;;;;;;;;;;5094130;28;20101;-81
2024/03/09 09:50:21;;;;;;;0.10;0.10;;;;;;;;;;5108284;28;20407;-81
2024/03/09 09:52:50;;;;;;;0.95;0.95;;;;;;;;;;5077324;28;20047;-83
2024/03/09 09:55:19;;;;;;;0.30;0.30;;;;;;;;;;5095435;28;20043;-83
2024/03/09 09:57:51;;;;;;;2.30;1.13;;;;;;;;;;5077612;28;20051;-81
2024/03/09 10:00:17;;;;;;;0.65;0.65;;;;;;;;;;5111231;28;20391;-82
2024/03/09 10:02:43;;;;;;;0.30;0.30;;;;;;;;;;5109035;28;20134;-82
2024/03/09 10:05:16;;;;;;;0.73;0.73;;;;;;;;;;5092157;28;20028;-82
2024/03/09 10:07:58;;;;;;;0.63;0.63;;;;;;;;;;5092337;28;20035;-81
2024/03/09 10:10:29;;;;;;;0.28;0.28;;;;;;;;;;5073291;28;20044;-82
2024/03/09 10:13:13;;;;;;;0.30;0.30;;;;;;;;;;5102061;28;20098;-82
2024/03/09 10:15:44;;;;;;;0.57;0.57;;;;;;;;;;5074820;28;20028;-81
2024/03/09 10:18:11;;;;;;;0.85;0.50;;;;;;;;;;5087509;28;20046;-82
2024/03/09 10:20:38;;;;;;;0.63;0.63;;;;;;;;;;5081042;28;20070;-81
2024/03/09 10:23:12;;;;;;;1.02;0.65;;;;;;;;;;5080171;28;20047;-82
2024/03/09 10:25:38;;;;;;;0.47;0.47;;;;;;;;;;5114163;28;20062;-82
2024/03/09 10:28:06;;;;;;;0.55;0.55;;;;;;;;;;5077757;28;20578;-82
2024/03/09 10:30:32;;;;;;;0.10;0.10;;;;;;;;;;5096019;28;20055;-82
2024/03/09 10:32:58;;;;;;;0.70;0.70;;;;;;;;;;5097464;28;20046;-82
2024/03/09 10:35:25;;;;;;;2.17;0.57;;;;;;;;;;5113241;28;20043;-82
2024/03/09 10:37:55;;;;;;;0.20;0.20;;;;;;;;;;5095955;28;20113;-83
2024/03/09 10:40:23;;;;;;;0.80;0.45;;;;;;;;;;5097092;28;20036;-83
2024/03/09 10:42:50;;;;;;;0.20;0.20;;;;;;;;;;5097882;28;20052;-86
2024/03/09 10:45:17;;;;;;;0.50;0.50;;;;;;;;;;5096951;28;20073;-83
2024/03/09 10:47:45;;;;;;;0.75;0.75;;;;;;;;;;5114278;28;20368;-82
2024/03/09 10:50:11;;;;;;;0.35;0.30;;;;;;;;;;5096830;28;20043;-82
2024/03/09 10:52:38;;;;;;;0.50;0.50;;;;;;;;;;5097106;28;20036;-81
2024/03/09 10:55:05;;;;;;;0.75;0.47;;;;;;;;;;5114178;28;20127;-84
2024/03/09 10:57:32;;;;;;;1.25;1.15;;;;;;;;;;5096857;28;20042;-83
2024/03/09 10:59:58;;;;;;;0.73;0.73;;;;;;;;;;5080304;28;20042;-83
2024/03/09 11:02:25;;;;;;;0.45;0.28;;;;;;;;;;5079803;28;20056;-84
2024/03/09 11:04:51;;;;;;;0.20;0.20;;;;;;;;;;5113841;28;20390;-82
2024/03/09 11:07:20;;;;;;;0.30;0.30;;;;;;;;;;5079991;28;20058;-82
2024/03/09 11:09:47;;;;;;;0.63;0.63;;;;;;;;;;5113645;28;20039;-83
2024/03/09 11:12:14;;;;;;;0.63;0.40;;;;;;;;;;5113607;28;20487;-83
2024/03/09 11:14:53;;;;;;;0.63;0.63;;;;;;;;;;5096907;28;20051;-82
2024/03/09 11:17:23;;;;;;;0.20;0.20;;;;;;;;;;5113707;28;20047;-82
2024/03/09 11:19:59;;;;;;;0.75;0.55;;;;;;;;;;5080338;28;20116;-82
2024/03/09 11:22:47;;;;;;;0.30;0.30;;;;;;;;;;5114708;28;20043;-85
2024/03/09 11:25:33;;;;;;;0.35;0.35;;;;;;;;;;5080172;28;20043;-85
2024/03/09 11:27:59;;;;;;;0.30;0.30;;;;;;;;;;5112394;28;20123;-85
2024/03/09 11:30:26;;;;;;;0.90;0.85;;;;;;;;;;5079330;28;20075;-85
2024/03/09 11:32:54;;;;;;;0.20;0.20;;;;;;;;;;5096265;28;20039;-84
2024/03/09 11:35:27;;;;;;;0.38;0.28;;;;;;;;;;5096455;28;20256;-84
2024/03/09 11:37:56;;;;;;;0.10;0.10;;;;;;;;;;5079392;28;20115;-84
2024/03/09 11:40:23;;;;;;;0.45;0.17;;;;;;;;;;5112942;28;20069;-83
2024/03/09 11:42:58;;;;;;;0.10;0.10;;;;;;;;;;5079473;28;20038;-84
2024/03/09 11:45:29;;;;;;;0.20;0.20;;;;;;;;;;5079237;28;20039;-84
2024/03/09 11:47:56;;;;;;;0.20;0.20;;;;;;;;;;5113164;28;20051;-84
2024/03/09 11:50:24;;;;;;;1.00;0.25;;;;;;;;;;5079433;28;20151;-85
2024/03/09 11:52:51;;;;;;;0.52;0.52;;;;;;;;;;5079446;28;20076;-83
2024/03/09 11:55:20;;;;;;;0.38;0.38;;;;;;;;;;5113137;28;20383;-83
2024/03/09 11:57:47;;;;;;;0.40;0.35;;;;;;;;;;5095821;28;20043;-83
2024/03/09 12:00:14;;;;;;;0.68;0.68;;;;;;;;;;5096186;28;20055;-84
2024/03/09 12:02:40;;;;;;;0.85;0.30;;;;;;;;;;5095871;28;20102;-84
2024/03/09 12:05:16;;;;;;;0.40;0.40;;;;;;;;;;5096087;28;20441;-82
2024/03/09 12:07:43;;;;;;;0.63;0.60;;;;;;;;;;5096433;28;20038;-84
2024/03/09 12:10:13;;;;;;;0.20;0.20;;;;;;;;;;5112778;28;20106;-84
2024/03/09 12:12:40;;;;;;;0.20;0.20;;;;;;;;;;5096165;28;20110;-83
2024/03/09 12:15:07;;;;;;;0.35;0.35;;;;;;;;;;5112632;28;20367;-86
2024/03/09 12:17:33;;;;;;;0.20;0.20;;;;;;;;;;5078750;28;20044;-84
2024/03/09 12:19:59;;;;;;;1.30;0.55;;;;;;;;;;5078530;28;20032;-84
2024/03/09 12:22:25;;;;;;;0.20;0.20;;;;;;;;;;5078949;28;20051;-81
2024/03/09 12:24:51;;;;;;;0.10;0.10;;;;;;;;;;5095571;28;20051;-83
2024/03/09 12:27:20;;;;;;;0.20;0.20;;;;;;;;;;5112210;28;20039;-83
2024/03/09 12:29:46;;;;;;;0.20;0.20;;;;;;;;;;5078753;28;20051;-84
2024/03/09 12:32:13;;;;;;;0.20;0.20;;;;;;;;;;5112293;28;20039;-82
2024/03/09 12:34:39;;;;;;;0.10;0.10;;;;;;;;;;5078237;28;20040;-81
2024/03/09 12:37:05;;;;;;;0.20;0.20;;;;;;;;;;5078641;28;20112;-80
2024/03/09 12:39:31;;;;;;;0.20;0.20;;;;;;;;;;5113231;28;20035;-80
2024/03/09 12:41:57;;;;;;;0.20;0.20;;;;;;;;;;5111855;28;20495;-79
2024/03/09 12:44:24;;;;;;;0.38;0.38;;;;;;;;;;5112248;28;20039;-80
2024/03/09 12:46:54;;;;;;;0.30;0.30;;;;;;;;;;5095102;28;20035;-81
2024/03/09 12:49:20;;;;;;;0.55;0.30;;;;;;;;;;5094834;28;20483;-80
2024/03/09 12:51:46;;;;;;;0.28;0.20;;;;;;;;;;5113299;28;20040;-81
2024/03/09 12:54:13;;;;;;;1.25;0.95;;;;;;;;;;5094916;28;20100;-82
2024/03/09 12:56:39;;;;;;;0.20;0.20;;;;;;;;;;5112053;28;20035;-81
2024/03/09 12:59:08;;;;;;;0.35;0.35;;;;;;;;;;5094803;28;20127;-81
2024/03/09 13:01:36;;;;;;;0.65;0.63;;;;;;;;;;5094342;28;20059;-82
2024/03/09 13:04:07;;;;;;;0.90;0.88;;;;;;;;;;5111781;28;20130;-83
2024/03/09 13:06:34;;;;;;;0.35;0.35;;;;;;;;;;5095343;28;20051;-82
2024/03/09 13:09:00;;;;;;;0.75;0.75;;;;;;;;;;5094655;28;20043;-84
2024/03/09 13:11:27;;;;;;;0.30;0.30;;;;;;;;;;5094475;28;20082;-85
2024/03/09 13:13:53;;;;;;;0.88;0.85;;;;;;;;;;5111496;28;20394;-83
2024/03/09 13:16:21;;;;;;;0.20;0.20;;;;;;;;;;5111679;28;20039;-82
2024/03/09 13:18:47;;;;;;;1.13;0.20;;;;;;;;;;5077825;28;20036;-82
2024/03/09 13:21:14;;;;;;;0.50;0.50;;;;;;;;;;5077797;28;20039;-83
2024/03/09 13:23:43;;;;;;;0.20;0.20;;;;;;;;;;5094495;28;20039;-82
2024/03/09 13:26:12;;;;;;;0.10;0.10;;;;;;;;;;5111246;28;20039;-82
2024/03/09 13:28:41;;;;;;;0.57;0.40;;;;;;;;;;5078166;28;20050;-81
2024/03/09 13:31:08;;;;;;;0.20;0.20;;;;;;;;;;5077756;28;20433;-83
2024/03/09 13:33:41;;;;;;;0.65;0.65;;;;;;;;;;5111009;28;20097;-83
2024/03/09 13:36:17;;;;;;;0.75;0.20;;;;;;;;;;5111552;28;20043;-83
2024/03/09 13:38:47;;;;;;;0.15;0.15;;;;;;;;;;5094563;28;20031;-84
2024/03/09 13:41:14;;;;;;;0.20;0.20;;;;;;;;;;5093991;28;20085;-84
2024/03/09 13:43:44;;;;;;;0.30;0.30;;;;;;;;;;5094168;28;20112;-84
2024/03/09 13:46:10;;;;;;;1.08;0.77;;;;;;;;;;5077734;28;20122;-83
2024/03/09 13:48:45;;;;;;;1.98;0.57;;;;;;;;;;5093943;28;20043;-82
2024/03/09 13:51:15;;;;;;;1.10;0.40;;;;;;;;;;5098686;28;20323;-83
2024/03/09 13:53:44;;;;;;;0.20;0.20;;;;;;;;;;5081715;28;20126;-83
2024/03/09 13:56:14;;;;;;;0.50;0.30;;;;;;;;;;5098091;28;20176;-84
2024/03/09 13:58:49;;;;;;;0.38;0.38;;;;;;;;;;5098126;28;20035;-84
2024/03/09 14:01:19;;;;;;;0.38;0.38;;;;;;;;;;5097853;28;20043;-83
2024/03/09 14:03:45;;;;;;;0.20;0.20;;;;;;;;;;5115106;28;20118;-83
2024/03/09 14:06:14;;;;;;;0.38;0.38;;;;;;;;;;5097982;28;20036;-81
2024/03/09 14:08:40;;;;;;;0.10;0.10;;;;;;;;;;5114953;28;20139;-82
2024/03/09 14:11:08;;;;;;;0.10;0.10;;;;;;;;;;5097851;28;20039;-83
2024/03/09 14:13:35;;;;;;;0.35;0.30;;;;;;;;;;5080836;28;20047;-82
2024/03/09 14:16:01;;;;;;;0.40;0.40;;;;;;;;;;5114997;28;20486;-82
2024/03/09 14:18:28;;;;;;;1.17;0.98;;;;;;;;;;5080791;28;20043;-82
2024/03/09 14:20:54;;;;;;;4.53;0.35;;;;;;;;;;5097727;28;20043;-82
2024/03/09 14:23:23;;;;;;;1.02;0.88;;;;;;;;;;5080806;28;20046;-82
2024/03/09 14:25:52;;;;;;;0.22;0.22;;;;;;;;;;5081043;28;20047;-83
2024/03/09 14:28:18;;;;;;;0.43;0.43;;;;;;;;;;5097609;28;20047;-82
2024/03/09 14:30:44;;;;;;;2.22;0.82;;;;;;;;;;5114388;28;20040;-82
2024/03/09 14:33:13;;;;;;;0.77;0.65;;;;;;;;;;5097540;28;20114;-82
2024/03/09 14:35:40;;;;;;;0.70;0.40;;;;;;;;;;5114559;28;20036;-82
2024/03/09 14:38:08;;;;;;;0.95;0.95;;;;;;;;;;5097544;28;20360;-81
2024/03/09 14:40:34;;;;;;;0.30;0.30;;;;;;;;;;5113094;28;20051;-80
2024/03/09 14:43:03;;;;;;;0.17;0.17;;;;;;;;;;5114173;28;20036;-81
2024/03/09 14:45:32;;;;;;;0.20;0.20;;;;;;;;;;5097602;28;20035;-80
2024/03/09 14:48:04;;;;;;;1.67;0.70;;;;;;;;;;5114201;28;20081;-80